sensor_id;sensor_type;location;lat;lon;timestamp;P1;durP1;ratioP1;P2;durP2;ratioP2
62037;SDS011;47991;42.974;12.082;2022-10-30T00:01:09;9.10;;;3.10;;
62037;SDS011;47991;42.974;12.082;2022-10-30T00:03:41;11.50;;;2.80;;
62037;SDS011;47991;42.974;12.082;2022-10-30T00:06:08;11.70;;;3.00;;
62037;SDS011;47991;42.974;12.082;2022-10-30T00:08:36;6.40;;;2.30;;
62037;SDS011;47991;42.974;12.082;2022-10-30T00:11:07;5.70;;;2.50;;
62037;SDS011;47991;42.974;12.082;2022-10-30T00:13:36;10.80;;;3.00;;
62037;SDS011;47991;42.974;12.082;2022-10-30T00:16:05;8.70;;;3.20;;
62037;SDS011;47991;42.974;12.082;2022-10-30T00:18:37;9.00;;;2.50;;
62037;SDS011;47991;42.974;12.082;2022-10-30T00:21:08;8.50;;;2.70;;
62037;SDS011;47991;42.974;12.082;2022-10-30T00:23:38;7.50;;;2.90;;
62037;SDS011;47991;42.974;12.082;2022-10-30T00:26:12;7.10;;;2.90;;
62037;SDS011;47991;42.974;12.082;2022-10-30T00:28:40;9.90;;;3.10;;
62037;SDS011;47991;42.974;12.082;2022-10-30T00:31:08;7.60;;;2.80;;
62037;SDS011;47991;42.974;12.082;2022-10-30T00:33:35;9.20;;;2.80;;
62037;SDS011;47991;42.974;12.082;2022-10-30T00:36:04;8.10;;;2.80;;
62037;SDS011;47991;42.974;12.082;2022-10-30T00:38:32;8.60;;;2.60;;
62037;SDS011;47991;42.974;12.082;2022-10-30T00:40:59;9.60;;;3.30;;
62037;SDS011;47991;42.974;12.082;2022-10-30T00:43:28;9.00;;;2.80;;
62037;SDS011;47991;42.974;12.082;2022-10-30T00:45:57;7.90;;;2.90;;
62037;SDS011;47991;42.974;12.082;2022-10-30T00:48:30;7.30;;;3.10;;
62037;SDS011;47991;42.974;12.082;2022-10-30T00:50:58;8.90;;;2.50;;
62037;SDS011;47991;42.974;12.082;2022-10-30T00:53:29;8.70;;;3.00;;
62037;SDS011;47991;42.974;12.082;2022-10-30T00:55:57;6.80;;;3.10;;
62037;SDS011;47991;42.974;12.082;2022-10-30T00:58:29;7.90;;;2.80;;
62037;SDS011;47991;42.974;12.082;2022-10-30T01:01:01;7.40;;;3.00;;
62037;SDS011;47991;42.974;12.082;2022-10-30T01:03:31;7.50;;;2.80;;
62037;SDS011;47991;42.974;12.082;2022-10-30T01:06:02;8.50;;;3.10;;
62037;SDS011;47991;42.974;12.082;2022-10-30T01:08:33;7.50;;;2.90;;
62037;SDS011;47991;42.974;12.082;2022-10-30T01:11:01;8.30;;;3.40;;
62037;SDS011;47991;42.974;12.082;2022-10-30T01:13:32;7.30;;;2.80;;
62037;SDS011;47991;42.974;12.082;2022-10-30T01:21:40;6.10;;;2.40;;
62037;SDS011;47991;42.974;12.082;2022-10-30T01:33:15;8.80;;;2.80;;
62037;SDS011;47991;42.974;12.082;2022-10-30T01:35:58;7.30;;;2.90;;
62037;SDS011;47991;42.974;12.082;2022-10-30T01:39:08;6.90;;;2.30;;
62037;SDS011;47991;42.974;12.082;2022-10-30T01:41:33;10.20;;;3.10;;
62037;SDS011;47991;42.974;12.082;2022-10-30T01:44:02;6.80;;;2.60;;
62037;SDS011;47991;42.974;12.082;2022-10-30T01:47:01;7.70;;;3.00;;
62037;SDS011;47991;42.974;12.082;2022-10-30T01:55:28;8.50;;;2.70;;
62037;SDS011;47991;42.974;12.082;2022-10-30T02:00:37;11.00;;;3.10;;
62037;SDS011;47991;42.974;12.082;2022-10-30T02:03:08;8.30;;;3.00;;
62037;SDS011;47991;42.974;12.082;2022-10-30T02:05:40;6.10;;;2.60;;
62037;SDS011;47991;42.974;12.082;2022-10-30T02:08:11;7.70;;;3.10;;
62037;SDS011;47991;42.974;12.082;2022-10-30T02:10:40;9.80;;;3.20;;
62037;SDS011;47991;42.974;12.082;2022-10-30T02:13:10;7.90;;;2.80;;
62037;SDS011;47991;42.974;12.082;2022-10-30T02:15:38;7.20;;;3.00;;
62037;SDS011;47991;42.974;12.082;2022-10-30T02:18:06;8.00;;;3.10;;
62037;SDS011;47991;42.974;12.082;2022-10-30T02:20:35;6.20;;;2.60;;
62037;SDS011;47991;42.974;12.082;2022-10-30T02:23:03;6.90;;;2.50;;
62037;SDS011;47991;42.974;12.082;2022-10-30T02:25:34;7.00;;;2.90;;
62037;SDS011;47991;42.974;12.082;2022-10-30T02:28:01;6.30;;;2.80;;
62037;SDS011;47991;42.974;12.082;2022-10-30T02:30:31;7.60;;;2.80;;
62037;SDS011;47991;42.974;12.082;2022-10-30T02:33:01;9.60;;;3.40;;
62037;SDS011;47991;42.974;12.082;2022-10-30T02:35:29;6.20;;;2.70;;
62037;SDS011;47991;42.974;12.082;2022-10-30T02:37:56;7.80;;;2.60;;
62037;SDS011;47991;42.974;12.082;2022-10-30T02:40:26;7.50;;;2.80;;
62037;SDS011;47991;42.974;12.082;2022-10-30T02:42:56;6.20;;;2.40;;
62037;SDS011;47991;42.974;12.082;2022-10-30T02:45:24;8.60;;;2.70;;
62037;SDS011;47991;42.974;12.082;2022-10-30T02:47:51;6.10;;;2.80;;
62037;SDS011;47991;42.974;12.082;2022-10-30T02:50:18;8.80;;;2.80;;
62037;SDS011;47991;42.974;12.082;2022-10-30T02:52:46;7.10;;;2.60;;
62037;SDS011;47991;42.974;12.082;2022-10-30T02:55:13;13.20;;;2.80;;
62037;SDS011;47991;42.974;12.082;2022-10-30T02:57:41;9.30;;;2.70;;
62037;SDS011;47991;42.974;12.082;2022-10-30T03:00:09;14.10;;;2.90;;
62037;SDS011;47991;42.974;12.082;2022-10-30T03:02:37;6.60;;;2.80;;
62037;SDS011;47991;42.974;12.082;2022-10-30T03:05:05;9.20;;;2.80;;
62037;SDS011;47991;42.974;12.082;2022-10-30T03:07:33;5.90;;;2.60;;
62037;SDS011;47991;42.974;12.082;2022-10-30T03:10:00;9.00;;;2.90;;
62037;SDS011;47991;42.974;12.082;2022-10-30T03:12:30;9.30;;;3.20;;
62037;SDS011;47991;42.974;12.082;2022-10-30T03:14:58;11.70;;;2.70;;
62037;SDS011;47991;42.974;12.082;2022-10-30T03:17:26;9.80;;;3.00;;
62037;SDS011;47991;42.974;12.082;2022-10-30T03:19:53;8.00;;;2.70;;
62037;SDS011;47991;42.974;12.082;2022-10-30T03:22:21;7.50;;;2.70;;
62037;SDS011;47991;42.974;12.082;2022-10-30T03:24:49;5.80;;;2.70;;
62037;SDS011;47991;42.974;12.082;2022-10-30T03:27:17;9.10;;;3.10;;
62037;SDS011;47991;42.974;12.082;2022-10-30T03:29:45;6.50;;;2.70;;
62037;SDS011;47991;42.974;12.082;2022-10-30T03:32:12;7.70;;;2.90;;
62037;SDS011;47991;42.974;12.082;2022-10-30T03:34:46;8.00;;;2.90;;
62037;SDS011;47991;42.974;12.082;2022-10-30T03:37:14;7.10;;;3.00;;
62037;SDS011;47991;42.974;12.082;2022-10-30T03:39:43;8.30;;;2.90;;
62037;SDS011;47991;42.974;12.082;2022-10-30T03:42:10;7.10;;;2.80;;
62037;SDS011;47991;42.974;12.082;2022-10-30T03:44:38;9.70;;;2.90;;
62037;SDS011;47991;42.974;12.082;2022-10-30T03:47:05;6.90;;;2.80;;
62037;SDS011;47991;42.974;12.082;2022-10-30T03:49:37;9.40;;;3.30;;
62037;SDS011;47991;42.974;12.082;2022-10-30T03:52:08;8.00;;;3.20;;
62037;SDS011;47991;42.974;12.082;2022-10-30T03:54:36;7.90;;;2.80;;
62037;SDS011;47991;42.974;12.082;2022-10-30T03:57:05;7.80;;;2.70;;
62037;SDS011;47991;42.974;12.082;2022-10-30T03:59:43;8.10;;;3.10;;
62037;SDS011;47991;42.974;12.082;2022-10-30T04:02:26;7.20;;;2.70;;
62037;SDS011;47991;42.974;12.082;2022-10-30T04:04:53;6.40;;;2.50;;
62037;SDS011;47991;42.974;12.082;2022-10-30T04:07:22;8.70;;;2.80;;
62037;SDS011;47991;42.974;12.082;2022-10-30T04:09:50;12.10;;;3.30;;
62037;SDS011;47991;42.974;12.082;2022-10-30T04:12:17;9.20;;;2.90;;
62037;SDS011;47991;42.974;12.082;2022-10-30T04:14:45;8.00;;;3.10;;
62037;SDS011;47991;42.974;12.082;2022-10-30T04:17:13;6.30;;;2.70;;
62037;SDS011;47991;42.974;12.082;2022-10-30T04:19:41;8.80;;;3.10;;
62037;SDS011;47991;42.974;12.082;2022-10-30T04:22:10;7.10;;;2.80;;
62037;SDS011;47991;42.974;12.082;2022-10-30T04:24:38;8.00;;;3.30;;
62037;SDS011;47991;42.974;12.082;2022-10-30T04:27:05;7.50;;;2.40;;
62037;SDS011;47991;42.974;12.082;2022-10-30T04:29:33;7.00;;;2.70;;
62037;SDS011;47991;42.974;12.082;2022-10-30T04:32:01;9.10;;;3.00;;
62037;SDS011;47991;42.974;12.082;2022-10-30T04:34:29;8.50;;;3.20;;
62037;SDS011;47991;42.974;12.082;2022-10-30T04:36:57;10.20;;;3.50;;
62037;SDS011;47991;42.974;12.082;2022-10-30T04:39:25;7.60;;;2.90;;
62037;SDS011;47991;42.974;12.082;2022-10-30T04:41:56;11.60;;;3.60;;
62037;SDS011;47991;42.974;12.082;2022-10-30T04:44:29;7.10;;;3.00;;
62037;SDS011;47991;42.974;12.082;2022-10-30T04:46:56;10.10;;;3.40;;
62037;SDS011;47991;42.974;12.082;2022-10-30T04:49:23;8.40;;;2.90;;
62037;SDS011;47991;42.974;12.082;2022-10-30T04:51:51;8.00;;;3.20;;
62037;SDS011;47991;42.974;12.082;2022-10-30T04:54:18;10.10;;;3.00;;
62037;SDS011;47991;42.974;12.082;2022-10-30T04:56:46;8.20;;;3.10;;
62037;SDS011;47991;42.974;12.082;2022-10-30T04:59:14;7.50;;;3.20;;
62037;SDS011;47991;42.974;12.082;2022-10-30T05:01:42;6.00;;;2.60;;
62037;SDS011;47991;42.974;12.082;2022-10-30T05:04:10;8.50;;;3.10;;
62037;SDS011;47991;42.974;12.082;2022-10-30T05:06:38;9.80;;;3.00;;
62037;SDS011;47991;42.974;12.082;2022-10-30T05:09:06;8.00;;;3.20;;
62037;SDS011;47991;42.974;12.082;2022-10-30T05:11:39;7.20;;;3.30;;
62037;SDS011;47991;42.974;12.082;2022-10-30T05:14:07;7.80;;;3.60;;
62037;SDS011;47991;42.974;12.082;2022-10-30T05:16:37;8.40;;;3.50;;
62037;SDS011;47991;42.974;12.082;2022-10-30T05:19:05;11.20;;;4.10;;
62037;SDS011;47991;42.974;12.082;2022-10-30T05:21:33;10.20;;;3.50;;
62037;SDS011;47991;42.974;12.082;2022-10-30T05:26:54;9.40;;;3.70;;
62037;SDS011;47991;42.974;12.082;2022-10-30T05:29:23;10.30;;;3.90;;
62037;SDS011;47991;42.974;12.082;2022-10-30T05:31:50;10.00;;;3.20;;
62037;SDS011;47991;42.974;12.082;2022-10-30T05:34:38;7.90;;;3.30;;
62037;SDS011;47991;42.974;12.082;2022-10-30T05:37:05;8.80;;;3.40;;
62037;SDS011;47991;42.974;12.082;2022-10-30T05:39:33;8.30;;;3.20;;
62037;SDS011;47991;42.974;12.082;2022-10-30T05:42:00;8.50;;;3.40;;
62037;SDS011;47991;42.974;12.082;2022-10-30T05:44:38;6.80;;;3.00;;
62037;SDS011;47991;42.974;12.082;2022-10-30T05:47:05;11.60;;;3.20;;
62037;SDS011;47991;42.974;12.082;2022-10-30T05:49:34;8.30;;;3.40;;
62037;SDS011;47991;42.974;12.082;2022-10-30T05:52:03;7.90;;;3.10;;
62037;SDS011;47991;42.974;12.082;2022-10-30T05:54:30;7.00;;;3.00;;
62037;SDS011;47991;42.974;12.082;2022-10-30T05:57:07;10.30;;;3.20;;
62037;SDS011;47991;42.974;12.082;2022-10-30T05:59:36;10.30;;;4.00;;
62037;SDS011;47991;42.974;12.082;2022-10-30T06:02:03;13.80;;;3.50;;
62037;SDS011;47991;42.974;12.082;2022-10-30T06:07:24;8.90;;;3.40;;
62037;SDS011;47991;42.974;12.082;2022-10-30T06:09:52;9.50;;;3.30;;
62037;SDS011;47991;42.974;12.082;2022-10-30T06:12:40;7.40;;;3.50;;
62037;SDS011;47991;42.974;12.082;2022-10-30T06:15:22;8.70;;;3.00;;
62037;SDS011;47991;42.974;12.082;2022-10-30T06:17:50;7.30;;;3.00;;
62037;SDS011;47991;42.974;12.082;2022-10-30T06:23:24;6.50;;;2.80;;
62037;SDS011;47991;42.974;12.082;2022-10-30T06:25:57;30.10;;;4.70;;
62037;SDS011;47991;42.974;12.082;2022-10-30T06:28:35;8.20;;;3.00;;
62037;SDS011;47991;42.974;12.082;2022-10-30T06:31:03;9.40;;;3.40;;
62037;SDS011;47991;42.974;12.082;2022-10-30T06:33:32;10.70;;;2.90;;
62037;SDS011;47991;42.974;12.082;2022-10-30T06:36:00;10.60;;;2.60;;
62037;SDS011;47991;42.974;12.082;2022-10-30T06:38:28;8.20;;;2.90;;
62037;SDS011;47991;42.974;12.082;2022-10-30T06:40:55;8.30;;;3.00;;
62037;SDS011;47991;42.974;12.082;2022-10-30T06:43:38;11.20;;;3.60;;
62037;SDS011;47991;42.974;12.082;2022-10-30T06:46:32;12.60;;;4.50;;
62037;SDS011;47991;42.974;12.082;2022-10-30T06:48:59;10.80;;;3.90;;
62037;SDS011;47991;42.974;12.082;2022-10-30T06:51:27;9.00;;;4.00;;
62037;SDS011;47991;42.974;12.082;2022-10-30T06:53:55;12.10;;;4.40;;
62037;SDS011;47991;42.974;12.082;2022-10-30T06:56:43;9.60;;;4.00;;
62037;SDS011;47991;42.974;12.082;2022-10-30T06:59:36;6.90;;;3.60;;
62037;SDS011;47991;42.974;12.082;2022-10-30T07:02:24;6.50;;;3.40;;
62037;SDS011;47991;42.974;12.082;2022-10-30T07:04:57;9.30;;;3.50;;
62037;SDS011;47991;42.974;12.082;2022-10-30T07:07:26;7.10;;;3.00;;
62037;SDS011;47991;42.974;12.082;2022-10-30T07:09:53;8.10;;;3.30;;
62037;SDS011;47991;42.974;12.082;2022-10-30T07:12:29;8.10;;;3.30;;
62037;SDS011;47991;42.974;12.082;2022-10-30T07:15:22;8.30;;;3.30;;
62037;SDS011;47991;42.974;12.082;2022-10-30T07:18:01;9.80;;;2.90;;
62037;SDS011;47991;42.974;12.082;2022-10-30T07:20:32;4.60;;;2.50;;
62037;SDS011;47991;42.974;12.082;2022-10-30T07:23:01;7.50;;;3.60;;
62037;SDS011;47991;42.974;12.082;2022-10-30T07:25:29;8.00;;;2.90;;
62037;SDS011;47991;42.974;12.082;2022-10-30T07:28:21;7.00;;;2.70;;
62037;SDS011;47991;42.974;12.082;2022-10-30T07:30:58;6.90;;;2.90;;
62037;SDS011;47991;42.974;12.082;2022-10-30T07:34:01;8.40;;;3.00;;
62037;SDS011;47991;42.974;12.082;2022-10-30T07:36:49;9.70;;;3.00;;
62037;SDS011;47991;42.974;12.082;2022-10-30T07:39:39;6.90;;;3.20;;
62037;SDS011;47991;42.974;12.082;2022-10-30T07:42:23;9.10;;;2.50;;
62037;SDS011;47991;42.974;12.082;2022-10-30T07:45:08;9.90;;;3.10;;
62037;SDS011;47991;42.974;12.082;2022-10-30T07:48:15;39.60;;;5.10;;
62037;SDS011;47991;42.974;12.082;2022-10-30T07:50:54;18.80;;;3.50;;
62037;SDS011;47991;42.974;12.082;2022-10-30T07:53:22;7.60;;;2.90;;
62037;SDS011;47991;42.974;12.082;2022-10-30T07:55:50;8.70;;;3.20;;
62037;SDS011;47991;42.974;12.082;2022-10-30T07:58:47;10.20;;;3.10;;
62037;SDS011;47991;42.974;12.082;2022-10-30T08:04:19;9.60;;;3.30;;
62037;SDS011;47991;42.974;12.082;2022-10-30T08:06:47;8.00;;;3.20;;
62037;SDS011;47991;42.974;12.082;2022-10-30T08:09:14;6.90;;;2.80;;
62037;SDS011;47991;42.974;12.082;2022-10-30T08:11:42;7.40;;;3.00;;
62037;SDS011;47991;42.974;12.082;2022-10-30T08:14:09;6.40;;;2.90;;
62037;SDS011;47991;42.974;12.082;2022-10-30T08:16:38;6.70;;;3.10;;
62037;SDS011;47991;42.974;12.082;2022-10-30T08:19:07;15.20;;;3.40;;
62037;SDS011;47991;42.974;12.082;2022-10-30T08:21:35;10.80;;;3.40;;
62037;SDS011;47991;42.974;12.082;2022-10-30T08:24:10;6.70;;;2.80;;
62037;SDS011;47991;42.974;12.082;2022-10-30T08:26:40;10.30;;;4.00;;
62037;SDS011;47991;42.974;12.082;2022-10-30T08:29:09;7.50;;;3.20;;
62037;SDS011;47991;42.974;12.082;2022-10-30T08:31:38;8.10;;;3.30;;
62037;SDS011;47991;42.974;12.082;2022-10-30T08:34:39;6.50;;;3.00;;
62037;SDS011;47991;42.974;12.082;2022-10-30T08:37:07;7.80;;;3.40;;
62037;SDS011;47991;42.974;12.082;2022-10-30T08:39:35;9.10;;;3.50;;
62037;SDS011;47991;42.974;12.082;2022-10-30T08:42:22;11.70;;;3.50;;
62037;SDS011;47991;42.974;12.082;2022-10-30T08:44:49;9.60;;;3.10;;
62037;SDS011;47991;42.974;12.082;2022-10-30T08:47:34;7.40;;;3.30;;
62037;SDS011;47991;42.974;12.082;2022-10-30T08:50:02;8.70;;;3.10;;
62037;SDS011;47991;42.974;12.082;2022-10-30T08:52:30;9.00;;;3.60;;
62037;SDS011;47991;42.974;12.082;2022-10-30T08:54:58;11.20;;;3.20;;
62037;SDS011;47991;42.974;12.082;2022-10-30T08:57:26;9.90;;;3.20;;
62037;SDS011;47991;42.974;12.082;2022-10-30T08:59:55;8.10;;;3.50;;
62037;SDS011;47991;42.974;12.082;2022-10-30T09:02:49;8.90;;;4.00;;
62037;SDS011;47991;42.974;12.082;2022-10-30T09:05:36;10.70;;;4.90;;
62037;SDS011;47991;42.974;12.082;2022-10-30T09:08:16;9.10;;;3.70;;
62037;SDS011;47991;42.974;12.082;2022-10-30T09:11:05;9.50;;;3.50;;
62037;SDS011;47991;42.974;12.082;2022-10-30T09:13:32;9.30;;;3.50;;
62037;SDS011;47991;42.974;12.082;2022-10-30T09:16:00;9.50;;;3.40;;
62037;SDS011;47991;42.974;12.082;2022-10-30T09:18:29;8.30;;;3.70;;
62037;SDS011;47991;42.974;12.082;2022-10-30T09:20:57;8.80;;;3.40;;
62037;SDS011;47991;42.974;12.082;2022-10-30T09:23:25;12.60;;;3.70;;
62037;SDS011;47991;42.974;12.082;2022-10-30T09:26:00;11.60;;;3.50;;
62037;SDS011;47991;42.974;12.082;2022-10-30T09:28:50;7.00;;;2.80;;
62037;SDS011;47991;42.974;12.082;2022-10-30T09:31:57;7.60;;;3.20;;
62037;SDS011;47991;42.974;12.082;2022-10-30T09:34:26;10.60;;;3.60;;
62037;SDS011;47991;42.974;12.082;2022-10-30T09:37:10;7.90;;;3.20;;
62037;SDS011;47991;42.974;12.082;2022-10-30T09:39:38;13.50;;;4.10;;
62037;SDS011;47991;42.974;12.082;2022-10-30T09:47:28;8.90;;;3.60;;
62037;SDS011;47991;42.974;12.082;2022-10-30T09:56:18;9.50;;;3.40;;
62037;SDS011;47991;42.974;12.082;2022-10-30T10:01:47;10.80;;;3.30;;
62037;SDS011;47991;42.974;12.082;2022-10-30T10:07:21;8.30;;;2.90;;
62037;SDS011;47991;42.974;12.082;2022-10-30T10:13:24;8.10;;;3.10;;
62037;SDS011;47991;42.974;12.082;2022-10-30T10:16:18;7.70;;;3.50;;
62037;SDS011;47991;42.974;12.082;2022-10-30T10:21:35;8.70;;;3.30;;
62037;SDS011;47991;42.974;12.082;2022-10-30T10:24:16;9.90;;;2.90;;
62037;SDS011;47991;42.974;12.082;2022-10-30T10:27:00;7.90;;;3.40;;
62037;SDS011;47991;42.974;12.082;2022-10-30T10:29:33;35.70;;;4.80;;
62037;SDS011;47991;42.974;12.082;2022-10-30T10:37:09;8.30;;;3.40;;
62037;SDS011;47991;42.974;12.082;2022-10-30T10:39:54;7.80;;;3.10;;
62037;SDS011;47991;42.974;12.082;2022-10-30T10:50:57;6.50;;;2.40;;
62037;SDS011;47991;42.974;12.082;2022-10-30T10:53:41;5.50;;;2.10;;
62037;SDS011;47991;42.974;12.082;2022-10-30T10:56:18;5.60;;;1.90;;
62037;SDS011;47991;42.974;12.082;2022-10-30T10:58:52;6.70;;;2.40;;
62037;SDS011;47991;42.974;12.082;2022-10-30T11:01:37;6.10;;;2.00;;
62037;SDS011;47991;42.974;12.082;2022-10-30T11:04:10;6.20;;;2.20;;
62037;SDS011;47991;42.974;12.082;2022-10-30T11:06:42;8.40;;;2.40;;
62037;SDS011;47991;42.974;12.082;2022-10-30T11:09:17;7.90;;;2.40;;
62037;SDS011;47991;42.974;12.082;2022-10-30T11:11:47;7.70;;;2.30;;
62037;SDS011;47991;42.974;12.082;2022-10-30T11:14:23;5.50;;;2.20;;
62037;SDS011;47991;42.974;12.082;2022-10-30T11:17:12;7.40;;;2.70;;
62037;SDS011;47991;42.974;12.082;2022-10-30T11:19:41;7.70;;;2.70;;
62037;SDS011;47991;42.974;12.082;2022-10-30T11:22:52;11.10;;;2.70;;
62037;SDS011;47991;42.974;12.082;2022-10-30T11:25:22;5.90;;;2.50;;
62037;SDS011;47991;42.974;12.082;2022-10-30T11:27:55;6.90;;;2.50;;
62037;SDS011;47991;42.974;12.082;2022-10-30T11:30:25;7.70;;;2.60;;
62037;SDS011;47991;42.974;12.082;2022-10-30T11:32:56;7.20;;;2.20;;
62037;SDS011;47991;42.974;12.082;2022-10-30T11:35:25;5.70;;;2.40;;
62037;SDS011;47991;42.974;12.082;2022-10-30T11:38:11;6.50;;;2.50;;
62037;SDS011;47991;42.974;12.082;2022-10-30T11:40:48;4.70;;;1.80;;
62037;SDS011;47991;42.974;12.082;2022-10-30T11:43:19;5.20;;;1.80;;
62037;SDS011;47991;42.974;12.082;2022-10-30T11:45:50;4.20;;;1.90;;
62037;SDS011;47991;42.974;12.082;2022-10-30T11:48:28;5.80;;;2.60;;
62037;SDS011;47991;42.974;12.082;2022-10-30T11:50:59;4.90;;;2.10;;
62037;SDS011;47991;42.974;12.082;2022-10-30T11:53:29;5.90;;;2.20;;
62037;SDS011;47991;42.974;12.082;2022-10-30T11:56:00;5.60;;;2.40;;
62037;SDS011;47991;42.974;12.082;2022-10-30T11:58:41;5.80;;;2.50;;
62037;SDS011;47991;42.974;12.082;2022-10-30T12:03:55;4.20;;;1.90;;
62037;SDS011;47991;42.974;12.082;2022-10-30T12:06:38;7.50;;;2.30;;
62037;SDS011;47991;42.974;12.082;2022-10-30T12:09:12;6.10;;;2.30;;
62037;SDS011;47991;42.974;12.082;2022-10-30T12:11:47;6.00;;;2.20;;
62037;SDS011;47991;42.974;12.082;2022-10-30T12:14:18;4.10;;;1.90;;
62037;SDS011;47991;42.974;12.082;2022-10-30T12:16:51;6.10;;;1.80;;
62037;SDS011;47991;42.974;12.082;2022-10-30T12:19:22;7.20;;;2.00;;
62037;SDS011;47991;42.974;12.082;2022-10-30T12:21:51;4.80;;;1.70;;
62037;SDS011;47991;42.974;12.082;2022-10-30T12:24:21;4.20;;;1.60;;
62037;SDS011;47991;42.974;12.082;2022-10-30T12:26:50;4.80;;;1.80;;
62037;SDS011;47991;42.974;12.082;2022-10-30T12:34:28;6.60;;;2.00;;
62037;SDS011;47991;42.974;12.082;2022-10-30T12:40:03;2.90;;;1.60;;
62037;SDS011;47991;42.974;12.082;2022-10-30T12:42:41;3.00;;;1.50;;
62037;SDS011;47991;42.974;12.082;2022-10-30T12:45:20;5.60;;;1.90;;
62037;SDS011;47991;42.974;12.082;2022-10-30T12:48:38;3.60;;;1.50;;
62037;SDS011;47991;42.974;12.082;2022-10-30T12:53:45;4.10;;;1.70;;
62037;SDS011;47991;42.974;12.082;2022-10-30T12:56:16;4.00;;;2.10;;
62037;SDS011;47991;42.974;12.082;2022-10-30T12:58:55;4.40;;;1.70;;
62037;SDS011;47991;42.974;12.082;2022-10-30T13:01:47;5.20;;;2.00;;
62037;SDS011;47991;42.974;12.082;2022-10-30T13:04:31;4.60;;;1.70;;
62037;SDS011;47991;42.974;12.082;2022-10-30T13:09:59;4.80;;;1.90;;
62037;SDS011;47991;42.974;12.082;2022-10-30T13:12:39;5.20;;;1.70;;
62037;SDS011;47991;42.974;12.082;2022-10-30T13:15:24;3.30;;;1.50;;
62037;SDS011;47991;42.974;12.082;2022-10-30T13:18:14;5.60;;;2.00;;
62037;SDS011;47991;42.974;12.082;2022-10-30T13:20:47;5.00;;;1.90;;
62037;SDS011;47991;42.974;12.082;2022-10-30T13:23:59;5.30;;;1.80;;
62037;SDS011;47991;42.974;12.082;2022-10-30T13:37:56;3.90;;;1.70;;
62037;SDS011;47991;42.974;12.082;2022-10-30T13:40:34;3.50;;;1.50;;
62037;SDS011;47991;42.974;12.082;2022-10-30T13:43:48;4.00;;;1.20;;
62037;SDS011;47991;42.974;12.082;2022-10-30T13:52:13;4.20;;;1.40;;
62037;SDS011;47991;42.974;12.082;2022-10-30T13:54:48;3.80;;;1.40;;
62037;SDS011;47991;42.974;12.082;2022-10-30T14:05:36;3.30;;;1.20;;
62037;SDS011;47991;42.974;12.082;2022-10-30T14:10:51;2.40;;;1.20;;
62037;SDS011;47991;42.974;12.082;2022-10-30T14:13:24;4.10;;;1.50;;
62037;SDS011;47991;42.974;12.082;2022-10-30T14:15:53;3.50;;;1.80;;
62037;SDS011;47991;42.974;12.082;2022-10-30T14:18:44;4.80;;;1.60;;
62037;SDS011;47991;42.974;12.082;2022-10-30T14:24:42;5.60;;;1.80;;
62037;SDS011;47991;42.974;12.082;2022-10-30T14:27:13;6.20;;;1.80;;
62037;SDS011;47991;42.974;12.082;2022-10-30T14:29:48;4.40;;;2.00;;
62037;SDS011;47991;42.974;12.082;2022-10-30T14:34:45;6.40;;;1.90;;
62037;SDS011;47991;42.974;12.082;2022-10-30T14:39:57;4.60;;;1.60;;
62037;SDS011;47991;42.974;12.082;2022-10-30T14:43:05;7.80;;;2.00;;
62037;SDS011;47991;42.974;12.082;2022-10-30T14:45:51;3.50;;;1.60;;
62037;SDS011;47991;42.974;12.082;2022-10-30T14:51:29;2.60;;;1.50;;
62037;SDS011;47991;42.974;12.082;2022-10-30T14:56:47;4.30;;;1.90;;
62037;SDS011;47991;42.974;12.082;2022-10-30T15:07:26;7.80;;;2.10;;
62037;SDS011;47991;42.974;12.082;2022-10-30T15:10:10;3.40;;;1.70;;
62037;SDS011;47991;42.974;12.082;2022-10-30T15:15:43;7.10;;;2.60;;
62037;SDS011;47991;42.974;12.082;2022-10-30T15:18:15;6.00;;;1.90;;
62037;SDS011;47991;42.974;12.082;2022-10-30T15:20:51;7.30;;;2.20;;
62037;SDS011;47991;42.974;12.082;2022-10-30T15:25:57;6.50;;;2.00;;
62037;SDS011;47991;42.974;12.082;2022-10-30T15:28:29;12.90;;;2.80;;
62037;SDS011;47991;42.974;12.082;2022-10-30T15:33:44;4.00;;;1.80;;
62037;SDS011;47991;42.974;12.082;2022-10-30T15:36:19;4.30;;;2.00;;
62037;SDS011;47991;42.974;12.082;2022-10-30T15:44:26;8.00;;;2.30;;
62037;SDS011;47991;42.974;12.082;2022-10-30T15:46:56;10.70;;;2.50;;
62037;SDS011;47991;42.974;12.082;2022-10-30T15:49:34;7.80;;;2.50;;
62037;SDS011;47991;42.974;12.082;2022-10-30T15:52:04;7.60;;;3.10;;
62037;SDS011;47991;42.974;12.082;2022-10-30T15:55:08;7.50;;;3.00;;
62037;SDS011;47991;42.974;12.082;2022-10-30T15:57:46;7.60;;;2.80;;
62037;SDS011;47991;42.974;12.082;2022-10-30T16:00:22;5.30;;;2.20;;
62037;SDS011;47991;42.974;12.082;2022-10-30T16:05:33;9.30;;;2.10;;
62037;SDS011;47991;42.974;12.082;2022-10-30T16:08:02;7.80;;;3.30;;
62037;SDS011;47991;42.974;12.082;2022-10-30T16:10:36;6.60;;;2.30;;
62037;SDS011;47991;42.974;12.082;2022-10-30T16:13:05;8.90;;;2.70;;
62037;SDS011;47991;42.974;12.082;2022-10-30T16:15:38;22.30;;;3.60;;
62037;SDS011;47991;42.974;12.082;2022-10-30T16:20:48;5.60;;;2.60;;
62037;SDS011;47991;42.974;12.082;2022-10-30T16:23:18;6.40;;;2.30;;
62037;SDS011;47991;42.974;12.082;2022-10-30T16:25:46;7.90;;;2.40;;
62037;SDS011;47991;42.974;12.082;2022-10-30T16:28:29;7.00;;;2.20;;
62037;SDS011;47991;42.974;12.082;2022-10-30T16:31:04;6.90;;;2.30;;
62037;SDS011;47991;42.974;12.082;2022-10-30T16:33:34;6.20;;;2.00;;
62037;SDS011;47991;42.974;12.082;2022-10-30T16:36:03;10.10;;;2.60;;
62037;SDS011;47991;42.974;12.082;2022-10-30T16:38:33;8.50;;;2.80;;
62037;SDS011;47991;42.974;12.082;2022-10-30T16:43:32;6.40;;;2.50;;
62037;SDS011;47991;42.974;12.082;2022-10-30T16:46:20;6.60;;;2.10;;
62037;SDS011;47991;42.974;12.082;2022-10-30T16:48:51;7.70;;;2.20;;
62037;SDS011;47991;42.974;12.082;2022-10-30T16:51:23;5.40;;;2.10;;
62037;SDS011;47991;42.974;12.082;2022-10-30T16:53:51;4.90;;;2.00;;
62037;SDS011;47991;42.974;12.082;2022-10-30T16:56:23;5.40;;;2.10;;
62037;SDS011;47991;42.974;12.082;2022-10-30T16:58:53;7.10;;;2.20;;
62037;SDS011;47991;42.974;12.082;2022-10-30T17:01:24;7.30;;;2.40;;
62037;SDS011;47991;42.974;12.082;2022-10-30T17:03:54;6.80;;;2.30;;
62037;SDS011;47991;42.974;12.082;2022-10-30T17:06:27;10.70;;;2.90;;
62037;SDS011;47991;42.974;12.082;2022-10-30T17:09:25;7.10;;;2.20;;
62037;SDS011;47991;42.974;12.082;2022-10-30T17:14:49;6.90;;;2.30;;
62037;SDS011;47991;42.974;12.082;2022-10-30T17:17:26;5.80;;;2.30;;
62037;SDS011;47991;42.974;12.082;2022-10-30T17:19:57;10.00;;;2.50;;
62037;SDS011;47991;42.974;12.082;2022-10-30T17:22:31;9.40;;;2.60;;
62037;SDS011;47991;42.974;12.082;2022-10-30T17:24:59;7.80;;;2.30;;
62037;SDS011;47991;42.974;12.082;2022-10-30T17:29:56;9.10;;;2.30;;
62037;SDS011;47991;42.974;12.082;2022-10-30T17:32:29;6.60;;;2.00;;
62037;SDS011;47991;42.974;12.082;2022-10-30T17:35:13;5.00;;;1.80;;
62037;SDS011;47991;42.974;12.082;2022-10-30T17:37:42;7.40;;;2.50;;
62037;SDS011;47991;42.974;12.082;2022-10-30T17:40:10;7.10;;;2.10;;
62037;SDS011;47991;42.974;12.082;2022-10-30T17:42:38;7.60;;;2.20;;
62037;SDS011;47991;42.974;12.082;2022-10-30T17:45:08;4.80;;;2.20;;
62037;SDS011;47991;42.974;12.082;2022-10-30T17:47:40;10.80;;;2.30;;
62037;SDS011;47991;42.974;12.082;2022-10-30T17:50:08;5.80;;;2.30;;
62037;SDS011;47991;42.974;12.082;2022-10-30T17:52:37;5.10;;;1.90;;
62037;SDS011;47991;42.974;12.082;2022-10-30T17:55:07;7.00;;;2.30;;
62037;SDS011;47991;42.974;12.082;2022-10-30T17:57:55;5.60;;;2.00;;